createdAt,value
2023-08-29T00:03:49.148Z,99333.31
2023-08-29T00:08:01.634Z,99338.94
2023-08-29T00:12:14.071Z,99372.50
2023-08-29T00:16:26.803Z,99381.59
2023-08-29T00:20:39.188Z,99385.41
2023-08-29T00:24:53.796Z,99382.38
2023-08-29T00:29:06.386Z,99375.09
2023-08-29T00:33:18.917Z,99384.06
2023-08-29T00:37:31.229Z,99344.66
2023-08-29T00:41:45.255Z,99351.75
2023-08-29T00:46:00.502Z,99368.44
2023-08-29T00:50:13.008Z,99377.31
2023-08-29T00:54:26.060Z,99366.66
2023-08-29T00:58:38.572Z,99362.34
2023-08-29T01:02:51.151Z,99326.94
2023-08-29T01:07:04.860Z,99330.78
2023-08-29T01:11:35.592Z,99378.56
2023-08-29T01:15:51.974Z,99369.16
2023-08-29T01:20:06.661Z,99378.03
2023-08-29T01:24:27.701Z,99368.94
2023-08-29T01:28:42.389Z,99345.16
2023-08-29T01:32:56.462Z,99313.28
2023-08-29T01:37:10.005Z,99322.84
2023-08-29T01:41:22.364Z,99350.75
2023-08-29T01:45:35.163Z,99314.81
2023-08-29T01:49:48.198Z,99317.34
2023-08-29T01:54:00.911Z,99303.72
2023-08-29T01:58:15.648Z,99278.50
2023-08-29T02:02:28.392Z,99308.09
2023-08-29T02:06:40.795Z,99321.88
2023-08-29T02:10:54.456Z,99311.88
2023-08-29T02:15:07.766Z,99312.50
2023-08-29T02:19:21.003Z,99305.72
2023-08-29T02:23:33.384Z,99342.44
2023-08-29T02:27:45.734Z,99344.88
2023-08-29T02:31:58.152Z,99345.72
2023-08-29T02:36:10.529Z,99347.69
2023-08-29T02:40:23.864Z,99344.91
2023-08-29T02:44:36.341Z,99355.44
2023-08-29T02:48:48.827Z,99351.38
2023-08-29T02:53:01.241Z,99371.50
2023-08-29T02:57:13.801Z,99366.59
2023-08-29T03:01:26.214Z,99365.31
2023-08-29T03:05:38.645Z,99372.84
2023-08-29T03:09:51.089Z,99383.94
2023-08-29T03:14:05.235Z,99390.25
2023-08-29T03:18:17.923Z,99396.94
2023-08-29T03:22:32.765Z,99389.53
2023-08-29T03:26:45.137Z,99376.72
2023-08-29T03:30:57.634Z,99386.22
2023-08-29T03:35:09.981Z,99393.59
2023-08-29T03:39:22.554Z,99380.44
2023-08-29T03:43:36.726Z,99377.34
2023-08-29T03:47:50.479Z,99396.75
2023-08-29T03:52:03.970Z,99431.00
2023-08-29T03:56:17.065Z,99435.78
2023-08-29T04:00:29.523Z,99425.09
2023-08-29T04:04:45.690Z,99437.75
2023-08-29T04:08:58.302Z,99455.59
2023-08-29T04:13:11.641Z,99453.75
2023-08-29T04:17:26.475Z,99456.69
2023-08-29T04:21:39.000Z,99449.03
2023-08-29T04:25:51.400Z,99449.59
2023-08-29T04:30:05.765Z,99438.94
2023-08-29T04:34:18.607Z,99432.75
2023-08-29T04:38:32.906Z,99430.38
2023-08-29T04:42:49.080Z,99430.91
2023-08-29T04:47:01.943Z,99443.00
2023-08-29T04:51:14.530Z,99429.41
2023-08-29T04:55:27.664Z,99438.50
2023-08-29T04:59:40.165Z,99441.28
2023-08-29T05:03:53.004Z,99435.84
2023-08-29T05:08:06.117Z,99439.72
2023-08-29T05:12:20.901Z,99442.75
2023-08-29T05:16:34.156Z,99446.63
2023-08-29T05:20:46.706Z,99462.69
2023-08-29T05:24:59.179Z,99470.00
2023-08-29T05:29:11.612Z,99460.22
2023-08-29T05:33:23.920Z,99443.72
2023-08-29T05:37:36.440Z,99435.22
2023-08-29T05:41:48.778Z,99429.72
2023-08-29T05:46:02.255Z,99429.25
2023-08-29T05:50:17.886Z,99424.31
2023-08-29T05:54:31.103Z,99417.97
2023-08-29T05:58:44.268Z,99409.03
2023-08-29T06:02:56.774Z,99410.41
2023-08-29T06:07:09.314Z,99389.06
2023-08-29T06:11:21.771Z,99389.59
2023-08-29T06:15:34.096Z,99378.06
2023-08-29T06:19:46.889Z,99387.34
2023-08-29T06:23:59.675Z,99383.63
2023-08-29T06:28:12.115Z,99386.84
2023-08-29T06:32:24.616Z,99385.38
2023-08-29T06:36:37.086Z,99380.25
2023-08-29T06:40:59.838Z,99386.19
2023-08-29T06:45:12.327Z,99394.53
2023-08-29T06:49:24.699Z,99392.63
2023-08-29T06:53:37.126Z,99393.13
2023-08-29T06:57:49.647Z,99422.97
2023-08-29T07:02:02.146Z,99412.03
2023-08-29T07:06:14.572Z,99407.84
2023-08-29T07:10:27.439Z,99410.03
2023-08-29T07:14:42.793Z,99406.66
2023-08-29T07:18:56.417Z,99407.22
2023-08-29T07:23:09.173Z,99397.56
2023-08-29T07:27:21.641Z,99401.16
2023-08-29T07:31:35.871Z,99409.34
2023-08-29T07:35:50.134Z,99411.81
2023-08-29T07:40:02.595Z,99413.81
2023-08-29T07:44:15.089Z,99410.53
2023-08-29T07:48:27.527Z,99408.41
2023-08-29T07:52:41.913Z,99414.03
2023-08-29T07:56:54.901Z,99409.47
2023-08-29T08:01:07.207Z,99405.03
2023-08-29T08:05:20.168Z,99409.34
2023-08-29T08:09:33.659Z,99415.81
2023-08-29T08:13:46.335Z,99417.47
2023-08-29T08:17:58.669Z,99414.00
2023-08-29T08:22:11.922Z,99417.75
2023-08-29T08:26:24.289Z,99412.47
2023-08-29T08:30:41.340Z,99416.22
2023-08-29T08:34:56.762Z,99410.47
2023-08-29T08:39:09.259Z,99409.75
2023-08-29T08:43:23.032Z,99405.09
2023-08-29T08:47:36.738Z,99409.00
2023-08-29T08:51:50.158Z,99406.00
2023-08-29T08:56:04.012Z,99403.41
2023-08-29T09:00:17.004Z,99411.00
2023-08-29T09:04:29.449Z,99408.00
2023-08-29T09:08:43.510Z,99400.69
2023-08-29T09:12:57.556Z,99401.97
2023-08-29T09:17:12.757Z,99413.25
2023-08-29T09:21:26.244Z,99410.41
2023-08-29T09:25:38.992Z,99408.13
2023-08-29T09:29:51.481Z,99407.13
2023-08-29T09:34:06.271Z,99418.13
2023-08-29T09:38:20.048Z,99423.44
2023-08-29T09:42:32.617Z,99415.47
2023-08-29T09:46:46.704Z,99402.84
2023-08-29T09:51:01.053Z,99409.03
2023-08-29T09:55:16.478Z,99400.81
2023-08-29T09:59:32.754Z,99403.56
2023-08-29T10:03:48.127Z,99398.63
2023-08-29T10:08:07.012Z,99405.66
2023-08-29T10:12:20.649Z,99393.47
2023-08-29T10:16:33.662Z,99399.63
2023-08-29T10:20:47.524Z,99399.06
2023-08-29T10:25:02.161Z,99400.09
2023-08-29T10:29:15.992Z,99393.56
2023-08-29T10:33:30.223Z,99399.94
2023-08-29T10:37:43.423Z,99397.38
2023-08-29T10:41:58.018Z,99389.91
2023-08-29T10:46:13.542Z,99393.50
2023-08-29T10:50:28.486Z,99391.94
2023-08-29T10:54:41.891Z,99392.47
2023-08-29T10:58:54.513Z,99390.53
2023-08-29T11:03:07.265Z,99387.66
2023-08-29T11:07:27.139Z,99379.78
2023-08-29T11:11:40.790Z,99368.31
2023-08-29T11:15:53.157Z,99380.72
2023-08-29T11:20:08.463Z,99370.47
2023-08-29T11:24:22.613Z,99371.75
2023-08-29T11:28:35.720Z,99374.84
2023-08-29T11:32:53.070Z,99373.34
2023-08-29T11:37:11.374Z,99366.72
2023-08-29T11:41:38.200Z,99368.31
2023-08-29T11:46:00.456Z,99369.28
2023-08-29T11:50:13.387Z,99368.72
2023-08-29T11:54:47.102Z,99370.00
2023-08-29T11:59:02.234Z,99369.97
2023-08-29T12:03:14.830Z,99366.72
2023-08-29T12:07:33.863Z,99370.59
2023-08-29T12:11:47.604Z,99367.50
2023-08-29T12:16:00.113Z,99367.78
2023-08-29T12:20:15.457Z,99373.97
2023-08-29T12:24:28.104Z,99376.91
2023-08-29T12:28:41.069Z,99357.34
2023-08-29T12:32:54.610Z,99365.41
2023-08-29T12:37:07.170Z,99372.59
2023-08-29T12:41:19.606Z,99380.31
2023-08-29T12:45:36.639Z,99377.53
2023-08-29T12:49:57.321Z,99384.59
2023-08-29T12:54:10.314Z,99393.47
2023-08-29T12:58:22.831Z,99388.28
2023-08-29T13:02:36.110Z,99393.31
2023-08-29T13:06:48.596Z,99389.75
2023-08-29T13:11:01.621Z,99389.19
2023-08-29T13:15:17.255Z,99402.06
2023-08-29T13:19:29.859Z,99388.88
2023-08-29T13:23:42.280Z,99385.19
2023-08-29T13:27:57.888Z,99393.41
2023-08-29T13:32:10.714Z,99378.19
2023-08-29T13:36:23.311Z,99386.59
2023-08-29T13:40:52.545Z,99385.22
2023-08-29T13:45:05.957Z,99377.03
2023-08-29T13:49:18.825Z,99369.31
2023-08-29T13:53:31.325Z,99376.44
2023-08-29T13:57:44.245Z,99368.75
2023-08-29T14:01:56.775Z,99376.09
2023-08-29T14:06:09.751Z,99380.56
2023-08-29T14:10:22.211Z,99374.63
2023-08-29T14:14:34.604Z,99374.69
2023-08-29T14:18:47.511Z,99377.72
2023-08-29T14:23:02.419Z,99382.41
2023-08-29T14:27:14.876Z,99377.84
2023-08-29T14:31:27.352Z,99371.69
2023-08-29T14:35:40.204Z,99363.53
2023-08-29T14:39:52.741Z,99355.50
2023-08-29T14:44:06.756Z,99360.91
2023-08-29T14:48:21.298Z,99370.34
2023-08-29T14:52:34.129Z,99372.19
2023-08-29T14:56:46.543Z,99367.00
2023-08-29T15:00:59.279Z,99358.84
2023-08-29T15:05:13.146Z,99359.91
2023-08-29T15:09:25.555Z,99352.50
2023-08-29T15:13:39.996Z,99346.06
2023-08-29T15:17:52.638Z,99350.06
2023-08-29T15:22:05.233Z,99347.38
2023-08-29T15:26:17.615Z,99341.75
2023-08-29T15:30:30.020Z,99344.16
2023-08-29T15:34:42.403Z,99337.81
2023-08-29T15:38:54.876Z,99337.66
2023-08-29T15:43:07.222Z,99354.75
2023-08-29T15:47:19.567Z,99352.69
2023-08-29T15:51:33.158Z,99359.91
2023-08-29T15:55:47.109Z,99360.91
2023-08-29T15:59:59.718Z,99353.41
2023-08-29T16:04:12.989Z,99345.31
2023-08-29T16:08:26.720Z,99352.53
2023-08-29T16:12:39.238Z,99354.53
2023-08-29T16:16:51.596Z,99363.06
2023-08-29T16:21:05.262Z,99362.28
2023-08-29T16:25:17.827Z,99355.63
2023-08-29T16:29:31.759Z,99349.97
2023-08-29T16:33:44.089Z,99353.56
2023-08-29T16:38:05.642Z,99355.72
2023-08-29T16:42:18.336Z,99357.00
2023-08-29T16:46:31.482Z,99363.16
2023-08-29T16:50:47.008Z,99356.97
2023-08-29T16:54:59.607Z,99361.34
2023-08-29T16:59:14.794Z,99364.03
2023-08-29T17:03:27.392Z,99369.31
2023-08-29T17:07:39.863Z,99374.31
2023-08-29T17:11:52.343Z,99376.09
2023-08-29T17:16:06.277Z,99380.47
2023-08-29T17:20:18.974Z,99376.84
2023-08-29T17:24:32.488Z,99382.28
2023-08-29T17:28:44.995Z,99383.09
2023-08-29T17:32:57.578Z,99387.97
2023-08-29T17:37:10.037Z,99391.28
2023-08-29T17:41:23.815Z,99397.56
2023-08-29T17:45:43.974Z,99401.75
2023-08-29T17:49:56.484Z,99407.00
2023-08-29T17:54:09.357Z,99414.75
2023-08-29T17:58:25.821Z,99424.66
2023-08-29T18:02:38.435Z,99435.31
2023-08-29T18:06:50.863Z,99450.50
2023-08-29T18:11:03.455Z,99452.22
2023-08-29T18:15:16.580Z,99457.91
2023-08-29T18:19:28.904Z,99457.03
2023-08-29T18:23:41.354Z,99462.34
2023-08-29T18:27:53.905Z,99465.19
2023-08-29T18:32:06.727Z,99470.59
2023-08-29T18:36:19.246Z,99471.34
2023-08-29T18:40:31.982Z,99469.47
2023-08-29T18:44:44.364Z,99467.78
2023-08-29T18:48:57.430Z,99470.38
2023-08-29T18:53:11.111Z,99475.88
2023-08-29T18:57:23.815Z,99480.34
2023-08-29T19:01:36.534Z,99486.78
2023-08-29T19:05:49.219Z,99477.75
2023-08-29T19:10:02.496Z,99474.88
2023-08-29T19:14:14.887Z,99479.09
2023-08-29T19:18:28.441Z,99461.09
2023-08-29T19:22:40.927Z,99473.06
2023-08-29T19:26:53.311Z,99458.38
2023-08-29T19:31:05.735Z,99464.53
2023-08-29T19:35:18.255Z,99468.84
2023-08-29T19:39:31.868Z,99458.63
2023-08-29T19:43:44.358Z,99462.59
2023-08-29T19:47:57.361Z,99455.81
2023-08-29T19:52:09.991Z,99458.63
2023-08-29T19:56:22.316Z,99453.06
2023-08-29T20:00:34.783Z,99445.78
2023-08-29T20:04:47.178Z,99454.94
2023-08-29T20:08:59.676Z,99455.84
2023-08-29T20:13:12.331Z,99452.22
2023-08-29T20:17:25.489Z,99446.41
2023-08-29T20:21:38.060Z,99432.88
2023-08-29T20:25:52.121Z,99431.91
2023-08-29T20:30:06.048Z,99433.88
2023-08-29T20:34:18.504Z,99437.06
2023-08-29T20:38:31.073Z,99436.72
2023-08-29T20:42:43.711Z,99439.06
2023-08-29T20:46:56.239Z,99440.66
2023-08-29T20:51:08.957Z,99428.59
2023-08-29T20:55:23.266Z,99431.53
2023-08-29T20:59:35.746Z,99437.19
2023-08-29T21:03:48.215Z,99433.31
2023-08-29T21:08:00.776Z,99437.13
2023-08-29T21:12:13.329Z,99433.66
2023-08-29T21:16:25.993Z,99440.09
2023-08-29T21:20:39.110Z,99449.16
2023-08-29T21:24:51.612Z,99446.69
2023-08-29T21:29:04.088Z,99449.09
2023-08-29T21:33:16.545Z,99443.13
2023-08-29T21:37:28.985Z,99449.34
2023-08-29T21:41:41.873Z,99460.44
2023-08-29T21:46:01.944Z,99446.13
2023-08-29T21:50:14.493Z,99448.56
2023-08-29T21:54:26.805Z,99444.53
2023-08-29T21:58:39.428Z,99435.34
2023-08-29T22:02:55.748Z,99430.44
2023-08-29T22:07:08.270Z,99440.53
2023-08-29T22:11:20.668Z,99432.78
2023-08-29T22:15:33.192Z,99439.03
2023-08-29T22:19:45.643Z,99441.88
2023-08-29T22:23:58.045Z,99440.78
2023-08-29T22:28:10.792Z,99434.63
2023-08-29T22:32:23.586Z,99442.13
2023-08-29T22:36:37.307Z,99433.91
2023-08-29T22:40:50.322Z,99429.75
2023-08-29T22:45:02.645Z,99423.06
2023-08-29T22:49:15.033Z,99421.19
2023-08-29T22:53:27.453Z,99425.53
2023-08-29T22:57:39.917Z,99413.41
2023-08-29T23:01:53.416Z,99419.72
2023-08-29T23:06:06.955Z,99426.88
2023-08-29T23:10:19.560Z,99420.03
2023-08-29T23:14:32.655Z,99427.63
2023-08-29T23:18:45.089Z,99427.00
2023-08-29T23:22:57.513Z,99422.00
2023-08-29T23:27:09.895Z,99422.53
2023-08-29T23:31:22.330Z,99418.63
2023-08-29T23:35:34.841Z,99411.69
2023-08-29T23:39:47.373Z,99411.00
2023-08-29T23:44:00.484Z,99399.53
2023-08-29T23:48:12.937Z,99403.16
2023-08-29T23:52:25.970Z,99415.94
2023-08-29T23:56:38.522Z,99412.13
